This is the latest recevied weather packets stored in our database for station/object IW1AXR-3. If no packets are shown the sender has not sent any weather packets the latest 10 day(s).
| Time | Temp. | Humidity | Pressure | Rain* | Wind** | Luminosity | Snow |
|---|---|---|---|---|---|---|---|
| 1777577207 | 8.33° C | 99% | 1022.5 hPa | - | - | - | - |
| 1777575999 | 8.89° C | - | 1022.2 hPa | - | - | - | - |
| 1777575395 | 8.89° C | - | 1022.2 hPa | - | - | - | - |
| 1777574792 | 8.89° C | 99% | 1022 hPa | - | - | - | - |
| 1777574188 | 9.44° C | 99% | 1021.9 hPa | - | - | - | - |
| 1777573584 | 9.44° C | 98% | 1021.7 hPa | - | - | - | - |
| 1777572983 | 9.44° C | 97% | 1021.7 hPa | - | - | - | - |
| 1777572378 | 9.44° C | 96% | 1021.6 hPa | - | - | - | - |
| 1777571774 | 10° C | 95% | 1021.6 hPa | - | - | - | - |
| 1777571171 | 10° C | 95% | 1021.5 hPa | - | - | - | - |
| 1777570569 | 10° C | 94% | 1021.4 hPa | - | - | - | - |
| 1777569964 | 10° C | 92% | 1021.3 hPa | - | - | - | - |
| 1777569363 | 10.56° C | 86% | 1021.4 hPa | - | - | - | - |
| 1777568757 | 12.22° C | 80% | 1021.4 hPa | - | - | - | - |
| 1777568153 | 12.22° C | 79% | 1021.4 hPa | - | - | - | - |
| 1777567550 | 11.67° C | 79% | 1021.5 hPa | - | - | - | - |
| 1777566341 | 12.22° C | 79% | 1021.5 hPa | - | - | - | - |
| 1777565737 | 12.22° C | 80% | 1021.4 hPa | - | - | - | - |
| 1777565133 | 12.78° C | 78% | 1021.4 hPa | - | - | - | - |
| 1777564530 | 13.33° C | 76% | 1021.4 hPa | - | - | - | - |
| 1777563927 | 14.44° C | 77% | 1021.5 hPa | - | - | - | - |
| 1777563323 | 13.33° C | 81% | 1021.4 hPa | - | - | - | - |
| 1777562720 | 13.33° C | 81% | 1021.5 hPa | - | - | - | - |
| 1777562116 | 13.33° C | 82% | 1021.6 hPa | - | - | - | - |
| 1777560908 | 12.78° C | 90% | 1021.8 hPa | - | - | - | - |
* Rain since midnight (hover to see other rain measurements)
** Current wind speed in m/s (hover to see current wind gust speed)